Aérodrome :
LOGIN :

S'inscrire | Disclaimer

   EN    FR    IT 

 










Légende :    VFR   VFR Marginal   IFR   IFR Intensif   IFR Très Intensif
Visi : 
Plafond : 
>= 8 km
>= 3000ft
5 à 8 km
1000 à 3000 ft
1500m à 5 km
500 à 1000 ft
800 à 1500m
200 à 500 ft
< 800m
< 200 ft
Symboles :   Orages  Brouillard  Fortes neiges  Fortes précipitations  Vent > 20 kt
SIGMETs :   Divers  Orages  Givrage  Turbulence  Onde Orograph.  Cendres Volcan.






- Altitude de l'aérodrome : 1910 ft
- Code IATA : RDZ


LFCR - Rodez

DERNIER METAR :
  • 281300Z AUTO 20006KT 170V230 9999 OVC009 09/07 Q1019 TEMPO BKN013

METARs EXPIRÉS :
  • 281230Z AUTO 17004KT 110V230 9999 OVC013 09/06 Q1020 NOSIG
  • 281200Z AUTO 17003KT 100V230 9999 OVC014 09/05 Q1020 BECMG BKN020
  • 281130Z AUTO VRB03KT 9999 OVC015 08/04 Q1020 BECMG BKN004
  • 281100Z AUTO 15005KT 120V180 9999 OVC018 08/04 Q1021 BECMG BKN004
  • 281030Z AUTO 14005KT 110V170 9999 BKN021 OVC028 06/03 Q1021 BECMG BKN004

TAF AMD TAF LFCR
Valide du 28 à 12h jusqu'au 29 à 12h UTC


281211Z 2812/2912 VRB03KT 9999 BKN020
PROB40 2812/2815 BKN013
BECMG 2819/2821 15010KT
PROB30 2903/2906 BKN013
BECMG 2900/2903 14016G26KT
BECMG 2910/2912 22010KT



MET'MAP, la Météo Aéronautique d'un coup d'oeil ! - Copyright ORBIFLY Décembre 2007 - Disclaimer

ORBIFLY MET'MAP TEAM :

Programmation & Développement : Alexandra Zaïnal
Sur une idée originale de : Baudouin d'Aumeries
Assistance à la programmation : Marc-Olivier Méhu
Soutien technique & logistique : Manuel Goepfert

Contact : metmap@orbifly.com




SOURCES & CREDITS :

   NOAA